createdAt,value
2023-01-07T00:01:58.608Z,11.90
2023-01-07T00:04:44.331Z,11.70
2023-01-07T00:07:29.937Z,11.50
2023-01-07T00:10:15.950Z,11.50
2023-01-07T00:13:02.150Z,11.60
2023-01-07T00:15:47.938Z,12.00
2023-01-07T00:18:34.543Z,12.10
2023-01-07T00:21:21.842Z,12.10
2023-01-07T00:24:10.055Z,12.10
2023-01-07T00:26:55.822Z,12.00
2023-01-07T00:29:41.234Z,11.90
2023-01-07T00:32:47.391Z,11.70
2023-01-07T00:35:36.809Z,11.00
2023-01-07T00:38:22.855Z,10.80
2023-01-07T00:41:10.035Z,11.00
2023-01-07T00:43:56.262Z,11.40
2023-01-07T00:46:41.683Z,11.80
2023-01-07T00:49:27.449Z,11.90
2023-01-07T00:52:13.354Z,12.10
2023-01-07T00:54:59.441Z,12.10
2023-01-07T00:57:45.390Z,12.10
2023-01-07T01:00:32.375Z,12.30
2023-01-07T01:03:18.336Z,12.10
2023-01-07T01:06:11.675Z,11.50
2023-01-07T01:08:57.032Z,11.40
2023-01-07T01:11:42.839Z,11.50
2023-01-07T01:14:29.489Z,11.00
2023-01-07T01:17:14.920Z,11.00
2023-01-07T01:20:00.677Z,10.90
2023-01-07T01:22:46.639Z,10.60
2023-01-07T01:25:32.989Z,10.60
2023-01-07T01:28:19.093Z,10.50
2023-01-07T01:31:04.994Z,10.40
2023-01-07T01:34:01.290Z,10.40
2023-01-07T01:36:47.077Z,10.70
2023-01-07T01:39:33.545Z,11.20
2023-01-07T01:42:24.119Z,11.20
2023-01-07T01:45:13.867Z,10.80
2023-01-07T01:48:05.956Z,10.60
2023-01-07T01:50:53.028Z,10.60
2023-01-07T01:53:40.029Z,10.90
2023-01-07T01:56:30.797Z,10.90
2023-01-07T01:59:20.956Z,10.50
2023-01-07T02:02:07.525Z,10.20
2023-01-07T02:04:55.687Z,10.40
2023-01-07T02:07:41.828Z,10.20
2023-01-07T02:10:28.624Z,10.20
2023-01-07T02:14:07.372Z,10.60
2023-01-07T02:16:59.268Z,10.50
2023-01-07T02:20:17.852Z,10.30
2023-01-07T02:23:36.758Z,10.60
2023-01-07T02:26:34.452Z,10.50
2023-01-07T02:29:47.774Z,10.00
2023-01-07T02:32:54.988Z,9.70
2023-01-07T02:36:01.102Z,10.10
2023-01-07T02:39:31.179Z,10.00
2023-01-07T02:42:31.840Z,10.20
2023-01-07T02:45:29.307Z,10.40
2023-01-07T02:48:18.261Z,10.10
2023-01-07T02:51:04.512Z,10.20
2023-01-07T02:53:49.990Z,10.20
2023-01-07T02:57:23.855Z,10.10
2023-01-07T03:00:20.185Z,10.70
2023-01-07T03:03:09.320Z,10.80
2023-01-07T03:06:23.199Z,10.70
2023-01-07T03:09:17.239Z,10.50
2023-01-07T03:12:09.864Z,10.40
2023-01-07T03:15:30.208Z,10.20
2023-01-07T03:18:21.096Z,10.10
2023-01-07T03:21:12.514Z,10.00
2023-01-07T03:24:00.435Z,10.60
2023-01-07T03:26:49.572Z,10.50
2023-01-07T03:29:38.304Z,10.60
2023-01-07T03:32:50.373Z,10.90
2023-01-07T03:35:40.834Z,11.30
2023-01-07T03:38:28.291Z,11.50
2023-01-07T03:41:34.388Z,11.50
2023-01-07T03:44:20.804Z,11.40
2023-01-07T03:47:08.205Z,10.70
2023-01-07T03:49:53.788Z,10.50
2023-01-07T03:52:40.484Z,10.60
2023-01-07T03:55:26.897Z,10.90
2023-01-07T03:58:15.107Z,11.30
2023-01-07T04:01:00.888Z,11.50
2023-01-07T04:03:47.704Z,11.50
2023-01-07T04:06:33.472Z,11.40
2023-01-07T04:09:22.084Z,11.40
2023-01-07T04:12:08.693Z,11.40
2023-01-07T04:14:54.878Z,11.20
2023-01-07T04:17:41.327Z,11.40
2023-01-07T04:20:27.912Z,11.70
2023-01-07T04:23:17.524Z,11.70
2023-01-07T04:26:05.694Z,11.70
2023-01-07T04:28:51.442Z,11.70
2023-01-07T04:31:38.229Z,11.50
2023-01-07T04:34:24.580Z,11.60
2023-01-07T04:37:11.227Z,11.60
2023-01-07T04:39:57.342Z,11.00
2023-01-07T04:42:43.134Z,11.10
2023-01-07T04:45:28.953Z,11.50
2023-01-07T04:48:17.107Z,11.60
2023-01-07T04:51:03.913Z,11.60
2023-01-07T04:53:51.891Z,11.20
2023-01-07T04:56:37.618Z,11.00
2023-01-07T04:59:23.477Z,10.40
2023-01-07T05:02:09.731Z,10.70
2023-01-07T05:04:56.732Z,11.10
2023-01-07T05:07:42.621Z,11.10
2023-01-07T05:10:28.873Z,11.30
2023-01-07T05:13:18.500Z,11.70
2023-01-07T05:16:05.387Z,11.90
2023-01-07T05:18:52.543Z,11.70
2023-01-07T05:21:38.437Z,11.50
2023-01-07T05:24:24.680Z,10.60
2023-01-07T05:27:11.125Z,10.30
2023-01-07T05:29:57.635Z,10.50
2023-01-07T05:32:46.254Z,10.90
2023-01-07T05:35:32.564Z,11.30
2023-01-07T05:38:19.283Z,11.50
2023-01-07T05:41:05.488Z,11.70
2023-01-07T05:43:51.474Z,11.80
2023-01-07T05:46:37.072Z,11.70
2023-01-07T05:49:22.556Z,11.80
2023-01-07T05:52:08.539Z,12.00
2023-01-07T05:54:54.965Z,12.00
2023-01-07T05:57:40.523Z,12.00
2023-01-07T06:00:26.422Z,12.00
2023-01-07T06:03:11.871Z,11.80
2023-01-07T06:05:57.749Z,12.00
2023-01-07T06:08:43.356Z,11.90
2023-01-07T06:11:30.300Z,11.60
2023-01-07T06:14:16.583Z,11.70
2023-01-07T06:17:02.117Z,11.80
2023-01-07T06:19:48.154Z,11.60
2023-01-07T06:22:34.811Z,11.60
2023-01-07T06:25:20.519Z,11.40
2023-01-07T06:28:06.257Z,11.30
2023-01-07T06:30:52.212Z,11.40
2023-01-07T06:33:38.089Z,11.60
2023-01-07T06:36:24.200Z,11.70
2023-01-07T06:39:10.638Z,11.80
2023-01-07T06:41:56.756Z,11.70
2023-01-07T06:44:42.904Z,11.60
2023-01-07T06:47:28.708Z,11.80
2023-01-07T06:50:15.736Z,11.90
2023-01-07T06:53:01.618Z,11.80
2023-01-07T06:55:51.587Z,11.80
2023-01-07T06:58:37.649Z,11.30
2023-01-07T07:01:23.533Z,11.90
2023-01-07T07:04:09.349Z,11.80
2023-01-07T07:06:55.414Z,11.80
2023-01-07T07:09:40.981Z,11.80
2023-01-07T07:12:26.719Z,11.90
2023-01-07T07:15:12.736Z,11.80
2023-01-07T07:17:58.617Z,11.90
2023-01-07T07:20:46.039Z,12.00
2023-01-07T07:23:31.860Z,12.00
2023-01-07T07:26:17.550Z,12.00
2023-01-07T07:29:03.548Z,12.00
2023-01-07T07:31:49.362Z,11.60
2023-01-07T07:34:36.011Z,11.30
2023-01-07T07:37:21.802Z,11.00
2023-01-07T07:40:09.110Z,10.80
2023-01-07T07:43:10.248Z,11.30
2023-01-07T07:45:58.610Z,10.90
2023-01-07T07:48:44.714Z,11.30
2023-01-07T07:51:31.517Z,11.60
2023-01-07T07:54:21.825Z,11.20
2023-01-07T07:57:09.809Z,11.70
2023-01-07T07:59:55.953Z,11.80
2023-01-07T08:02:41.893Z,11.10
2023-01-07T08:05:28.357Z,10.90
2023-01-07T08:08:15.168Z,10.80
2023-01-07T08:11:02.680Z,11.20
2023-01-07T08:13:48.709Z,11.40
2023-01-07T08:16:34.739Z,11.00
2023-01-07T08:19:20.551Z,10.70
2023-01-07T08:22:06.345Z,10.30
2023-01-07T08:24:51.978Z,10.20
2023-01-07T08:27:37.963Z,10.40
2023-01-07T08:30:24.867Z,10.20
2023-01-07T08:33:11.243Z,10.20
2023-01-07T08:35:57.420Z,10.20
2023-01-07T08:38:44.969Z,10.20
2023-01-07T08:41:32.005Z,10.80
2023-01-07T08:44:18.069Z,11.30
2023-01-07T08:47:04.250Z,11.00
2023-01-07T08:49:50.301Z,11.20
2023-01-07T08:52:36.094Z,11.40
2023-01-07T08:55:24.143Z,11.20
2023-01-07T08:58:10.580Z,11.60
2023-01-07T09:01:05.803Z,11.70
2023-01-07T09:03:52.083Z,11.80
2023-01-07T09:06:37.664Z,11.80
2023-01-07T09:09:23.421Z,11.90
2023-01-07T09:12:11.009Z,11.50
2023-01-07T09:14:57.028Z,11.10
2023-01-07T09:17:42.799Z,11.10
2023-01-07T09:20:28.845Z,11.50
2023-01-07T09:23:14.532Z,11.50
2023-01-07T09:26:00.185Z,11.60
2023-01-07T09:28:46.322Z,11.50
2023-01-07T09:31:32.413Z,11.70
2023-01-07T09:34:18.364Z,11.90
2023-01-07T09:37:04.311Z,11.80
2023-01-07T09:39:51.075Z,11.60
2023-01-07T09:43:02.613Z,10.90
2023-01-07T09:45:52.561Z,10.90
2023-01-07T09:48:47.793Z,10.60
2023-01-07T09:51:43.934Z,10.90
2023-01-07T09:54:33.946Z,11.10
2023-01-07T09:57:21.165Z,11.10
2023-01-07T10:00:19.568Z,10.70
2023-01-07T10:03:18.699Z,10.30
2023-01-07T10:06:32.371Z,10.30
2023-01-07T10:09:49.632Z,10.80
2023-01-07T10:12:57.103Z,10.50
2023-01-07T10:16:02.334Z,11.10
2023-01-07T10:19:00.927Z,11.60
2023-01-07T10:21:57.267Z,11.50
2023-01-07T10:24:48.398Z,11.10
2023-01-07T10:27:42.535Z,11.40
2023-01-07T10:30:31.223Z,11.50
2023-01-07T10:33:30.903Z,11.50
2023-01-07T10:36:32.055Z,11.10
2023-01-07T10:39:42.867Z,10.80
2023-01-07T10:42:31.320Z,10.70
2023-01-07T10:45:36.059Z,11.20
2023-01-07T10:48:27.995Z,10.70
2023-01-07T10:51:28.432Z,10.20
2023-01-07T10:54:26.093Z,11.00
2023-01-07T10:57:24.794Z,11.60
2023-01-07T11:00:15.201Z,12.10
2023-01-07T11:03:01.333Z,12.10
2023-01-07T11:05:51.497Z,10.70
2023-01-07T11:08:40.005Z,11.10
2023-01-07T11:11:25.898Z,11.00
2023-01-07T11:14:18.796Z,11.00
2023-01-07T11:17:53.226Z,11.70
2023-01-07T11:20:50.180Z,11.50
2023-01-07T11:23:38.395Z,10.80
2023-01-07T11:26:27.183Z,11.00
2023-01-07T11:29:25.988Z,10.80
2023-01-07T11:32:22.533Z,10.70
2023-01-07T11:35:23.358Z,10.60
2023-01-07T11:38:27.922Z,11.20
2023-01-07T11:41:25.811Z,11.10
2023-01-07T11:44:17.011Z,10.70
2023-01-07T11:47:03.593Z,10.90
2023-01-07T11:49:49.831Z,10.90
2023-01-07T11:52:35.934Z,10.80
2023-01-07T11:55:23.607Z,10.60
2023-01-07T11:58:29.991Z,10.90
2023-01-07T12:01:21.130Z,10.00
2023-01-07T12:04:19.457Z,11.00
2023-01-07T12:07:14.163Z,11.00
2023-01-07T12:10:00.450Z,11.30
2023-01-07T12:12:46.518Z,11.30
2023-01-07T12:15:48.553Z,11.40
2023-01-07T12:18:56.563Z,11.20
2023-01-07T12:22:23.400Z,11.00
2023-01-07T12:25:26.603Z,10.90
2023-01-07T12:28:24.520Z,11.20
2023-01-07T12:31:16.215Z,11.50
2023-01-07T12:34:06.284Z,11.50
2023-01-07T12:37:09.213Z,11.60
2023-01-07T12:40:05.998Z,10.00
2023-01-07T12:42:59.999Z,11.80
2023-01-07T12:45:54.517Z,12.30
2023-01-07T12:48:51.092Z,12.20
2023-01-07T12:51:57.083Z,12.10
2023-01-07T12:55:01.931Z,11.50
2023-01-07T12:58:16.540Z,11.60
2023-01-07T13:01:26.399Z,11.30
2023-01-07T13:04:47.088Z,11.30
2023-01-07T13:07:57.894Z,11.40
2023-01-07T13:10:50.051Z,11.30
2023-01-07T13:13:44.237Z,11.40
2023-01-07T13:16:29.852Z,11.70
2023-01-07T13:19:15.960Z,11.40
2023-01-07T13:22:02.398Z,11.60
2023-01-07T13:25:12.902Z,11.30
2023-01-07T13:28:17.645Z,11.30
2023-01-07T13:31:24.460Z,11.70
2023-01-07T13:34:19.707Z,11.70
2023-01-07T13:37:31.482Z,11.80
2023-01-07T13:40:27.908Z,11.40
2023-01-07T13:43:32.925Z,10.90
2023-01-07T13:46:22.169Z,10.60
2023-01-07T13:49:26.512Z,10.00
2023-01-07T13:52:21.738Z,11.50
2023-01-07T13:55:49.224Z,11.70
2023-01-07T13:58:45.249Z,12.10
2023-01-07T14:04:37.518Z,11.00
2023-01-07T14:07:26.944Z,10.90
2023-01-07T14:10:32.827Z,11.00
2023-01-07T14:14:02.105Z,11.30
2023-01-07T14:17:07.120Z,11.50
2023-01-07T14:20:13.805Z,11.20
2023-01-07T14:23:23.972Z,11.20
2023-01-07T14:26:36.928Z,11.20
2023-01-07T14:29:49.083Z,11.10
2023-01-07T14:32:39.409Z,11.00
2023-01-07T14:35:52.188Z,11.40
2023-01-07T14:38:39.948Z,11.40
2023-01-07T14:44:29.348Z,12.10
2023-01-07T14:47:41.319Z,12.20
2023-01-07T14:50:57.644Z,12.10
2023-01-07T14:54:02.288Z,12.30
2023-01-07T14:57:09.538Z,12.30
2023-01-07T15:00:14.807Z,12.30
2023-01-07T15:03:30.814Z,12.40
2023-01-07T15:06:37.477Z,12.60
2023-01-07T15:09:47.523Z,12.50
2023-01-07T15:12:57.431Z,11.60
2023-01-07T15:16:01.768Z,11.60
2023-01-07T15:18:53.818Z,10.40
2023-01-07T15:22:01.764Z,11.30
2023-01-07T15:24:49.499Z,12.30
2023-01-07T15:27:59.422Z,12.50
2023-01-07T15:31:02.847Z,12.60
2023-01-07T15:33:59.786Z,12.80
2023-01-07T15:36:50.096Z,12.70
2023-01-07T15:39:43.281Z,12.60
2023-01-07T15:42:29.892Z,12.60
2023-01-07T15:45:22.318Z,12.60
2023-01-07T15:48:12.956Z,12.70
2023-01-07T15:51:00.460Z,12.60
2023-01-07T15:53:55.116Z,12.40
2023-01-07T15:56:40.615Z,12.60
2023-01-07T15:59:30.345Z,12.50
2023-01-07T16:02:32.631Z,11.80
2023-01-07T16:05:19.581Z,11.30
2023-01-07T16:08:05.757Z,11.30
2023-01-07T16:11:02.413Z,11.50
2023-01-07T16:14:14.703Z,11.90
2023-01-07T16:17:27.546Z,12.10
2023-01-07T16:20:24.189Z,11.20
2023-01-07T16:23:10.147Z,10.80
2023-01-07T16:26:02.910Z,10.90
2023-01-07T16:29:02.728Z,11.10
2023-01-07T16:31:49.049Z,11.70
2023-01-07T16:34:37.734Z,11.20
2023-01-07T16:37:24.582Z,11.40
2023-01-07T16:40:19.529Z,11.60
2023-01-07T16:43:26.251Z,11.70
2023-01-07T16:46:18.410Z,11.50
2023-01-07T16:49:18.421Z,11.50
2023-01-07T16:52:04.172Z,11.50
2023-01-07T16:54:50.951Z,11.30
2023-01-07T16:57:44.877Z,11.30
2023-01-07T17:00:30.570Z,11.40
2023-01-07T17:03:16.734Z,11.30
2023-01-07T17:06:07.600Z,11.70
2023-01-07T17:08:55.891Z,11.40
2023-01-07T17:11:41.866Z,11.20
2023-01-07T17:14:46.677Z,11.40
2023-01-07T17:17:34.263Z,11.40
2023-01-07T17:20:22.631Z,11.50
2023-01-07T17:23:26.621Z,11.50
2023-01-07T17:26:24.035Z,11.50
2023-01-07T17:29:13.223Z,11.40
2023-01-07T17:31:58.919Z,11.40
2023-01-07T17:34:45.534Z,11.20
2023-01-07T17:37:34.604Z,11.30
2023-01-07T17:40:20.744Z,11.30
2023-01-07T17:43:24.866Z,11.50
2023-01-07T17:46:12.536Z,11.50
2023-01-07T17:48:59.756Z,10.50
2023-01-07T17:51:47.966Z,10.30
2023-01-07T17:54:33.446Z,10.40
2023-01-07T17:57:19.170Z,10.80
2023-01-07T18:00:05.561Z,11.00
2023-01-07T18:02:58.683Z,11.40
2023-01-07T18:05:44.200Z,11.70
2023-01-07T18:08:29.805Z,11.20
2023-01-07T18:11:37.870Z,11.30
2023-01-07T18:14:24.099Z,11.30
2023-01-07T18:17:09.822Z,11.30
2023-01-07T18:19:55.946Z,11.10
2023-01-07T18:22:43.148Z,11.20
2023-01-07T18:25:29.264Z,11.20
2023-01-07T18:28:15.332Z,11.00
2023-01-07T18:31:01.248Z,11.00
2023-01-07T18:33:47.625Z,10.90
2023-01-07T18:36:33.391Z,11.50
2023-01-07T18:39:20.640Z,11.40
2023-01-07T18:42:09.200Z,11.30
2023-01-07T18:44:54.586Z,11.60
2023-01-07T18:47:40.700Z,11.80
2023-01-07T18:50:26.634Z,11.30
2023-01-07T18:53:13.375Z,11.20
2023-01-07T18:56:02.261Z,11.40
2023-01-07T18:58:52.171Z,11.70
2023-01-07T19:01:40.343Z,11.80
2023-01-07T19:04:27.189Z,11.60
2023-01-07T19:07:12.911Z,11.00
2023-01-07T19:09:58.810Z,10.80
2023-01-07T19:12:44.533Z,10.70
2023-01-07T19:15:30.646Z,10.60
2023-01-07T19:18:16.803Z,10.60
2023-01-07T19:21:06.238Z,10.60
2023-01-07T19:23:51.917Z,10.50
2023-01-07T19:26:38.164Z,10.50
2023-01-07T19:29:23.924Z,10.80
2023-01-07T19:32:09.286Z,10.80
2023-01-07T19:34:54.892Z,10.50
2023-01-07T19:37:40.311Z,10.20
2023-01-07T19:40:26.348Z,10.70
2023-01-07T19:43:15.009Z,11.00
2023-01-07T19:46:01.399Z,11.10
2023-01-07T19:48:47.761Z,11.10
2023-01-07T19:51:34.881Z,11.40
2023-01-07T19:54:21.260Z,11.20
2023-01-07T19:57:10.326Z,10.80
2023-01-07T19:59:55.983Z,10.60
2023-01-07T20:02:42.183Z,11.00
2023-01-07T20:05:30.170Z,11.20
2023-01-07T20:08:15.939Z,11.40
2023-01-07T20:11:02.124Z,11.40
2023-01-07T20:13:48.932Z,11.50
2023-01-07T20:16:39.701Z,11.50
2023-01-07T20:19:25.777Z,11.60
2023-01-07T20:22:11.785Z,11.60
2023-01-07T20:24:57.663Z,11.30
2023-01-07T20:27:43.601Z,10.80
2023-01-07T20:30:29.037Z,11.00
2023-01-07T20:33:14.766Z,11.20
2023-01-07T20:36:02.660Z,11.30
2023-01-07T20:38:48.626Z,11.60
2023-01-07T20:41:35.259Z,11.50
2023-01-07T20:44:21.798Z,11.30
2023-01-07T20:47:08.766Z,10.60
2023-01-07T20:49:54.714Z,10.80
2023-01-07T20:52:40.151Z,11.00
2023-01-07T20:55:26.239Z,11.20
2023-01-07T20:58:12.052Z,11.00
2023-01-07T21:00:57.851Z,10.20
2023-01-07T21:03:43.977Z,10.40
2023-01-07T21:06:30.938Z,10.30
2023-01-07T21:09:19.634Z,9.80
2023-01-07T21:12:05.891Z,10.30
2023-01-07T21:14:51.589Z,10.50
2023-01-07T21:17:37.383Z,10.60
2023-01-07T21:20:23.286Z,10.80
2023-01-07T21:23:10.301Z,10.30
2023-01-07T21:25:56.333Z,10.40
2023-01-07T21:28:44.339Z,10.80
2023-01-07T21:31:30.364Z,10.90
2023-01-07T21:34:16.784Z,10.30
2023-01-07T21:37:02.435Z,10.20
2023-01-07T21:39:53.065Z,10.30
2023-01-07T21:42:39.563Z,10.40
2023-01-07T21:45:25.391Z,9.90
2023-01-07T21:48:11.130Z,10.10
2023-01-07T21:51:01.221Z,10.20
2023-01-07T21:53:47.234Z,10.30
2023-01-07T21:56:33.116Z,10.30
2023-01-07T21:59:20.953Z,9.80
2023-01-07T22:02:06.944Z,10.30
2023-01-07T22:04:52.888Z,10.20
2023-01-07T22:07:41.563Z,10.20
2023-01-07T22:10:27.135Z,10.00
2023-01-07T22:13:15.119Z,9.90
2023-01-07T22:16:00.667Z,9.80
2023-01-07T22:18:47.512Z,10.20
2023-01-07T22:21:33.919Z,10.20
2023-01-07T22:24:19.545Z,10.10
2023-01-07T22:27:05.287Z,10.30
2023-01-07T22:29:50.646Z,9.90
2023-01-07T22:32:36.302Z,9.60
2023-01-07T22:35:21.857Z,9.50
2023-01-07T22:38:07.989Z,9.70
2023-01-07T22:40:55.559Z,9.60
2023-01-07T22:43:41.809Z,9.70
2023-01-07T22:46:30.335Z,10.40
2023-01-07T22:49:16.488Z,10.20
2023-01-07T22:52:02.320Z,9.70
2023-01-07T22:54:47.946Z,9.60
2023-01-07T22:57:34.602Z,9.90
2023-01-07T23:00:47.157Z,10.00
2023-01-07T23:03:32.953Z,9.80
2023-01-07T23:06:18.641Z,9.80
2023-01-07T23:09:06.318Z,9.70
2023-01-07T23:11:54.828Z,10.00
2023-01-07T23:14:40.504Z,10.10
2023-01-07T23:17:26.545Z,10.10
2023-01-07T23:20:12.034Z,10.70
2023-01-07T23:22:57.770Z,10.20
2023-01-07T23:25:46.951Z,10.60
2023-01-07T23:28:32.315Z,10.70
2023-01-07T23:31:19.459Z,10.40
2023-01-07T23:34:05.648Z,10.90
2023-01-07T23:36:51.646Z,9.90
2023-01-07T23:39:37.397Z,9.80
2023-01-07T23:42:23.306Z,9.80
2023-01-07T23:45:09.380Z,9.60
2023-01-07T23:47:55.181Z,9.60
2023-01-07T23:50:40.572Z,9.90
2023-01-07T23:53:26.054Z,9.70
2023-01-07T23:56:13.655Z,10.00
2023-01-07T23:59:01.034Z,10.20
